Airfield :
LOGIN :

Register | Disclaimer

   EN    FR    IT 

 










Legend :    VFR   Marginal VFR   IFR   Intensive IFR   Very Intensive IFR
Visi :
Ceiling :
>= 8 km
>= 3000ft
5 to 8 km
1000 to 3000 ft
1500m to 5 km
500 to 1000 ft
800 to 1500m
200 to 500 ft
< 800m
< 200 ft
Symbols :   Thunderstorms  Fog  Heavy snow  Heavy precipitations  Wind > 20 kt
SIGMETs :     Misc.  Thunderstorms  Icing  Turbulence  Mountain Waves  Volcanic Ashes






- Airport Elevation : 289 ft


LFYR - Romorantin Pruniers

CURRENT METAR :
  • 021400Z AUTO 28005KT 220V330 9999 SCT031 OVC039 10/04 Q1033 NOSIG

EXPIRED METARs :
  • 021330Z AUTO 28005KT 230V320 9999 OVC041 10/03 Q1033 NOSIG
  • 021300Z AUTO 28004KT 250V330 9999 OVC042 10/04 Q1034 NOSIG
  • 021230Z AUTO 28004KT 9999 OVC040 09/04 Q1034 NOSIG
  • 021200Z AUTO 28003KT 240V340 9999 OVC042 09/04 Q1034 NOSIG
  • 021130Z AUTO 29003KT 240V340 9999 OVC043 09/04 Q1034 NOSIG

TAF TAF LFYR
Valid from the 02 at 09:00 until the 03 at 09:00 UTC


020800Z 0209/0309 26005KT 9999 BKN040



MET'MAP, your aeronautical weather chart ! - Copyright ORBIFLY December 2007 - Disclaimer

ORBIFLY MET'MAP TEAM :

Programming & Development : Alexandra Zaïnal
Original concept : Baudouin d'Aumeries
Technical & hardware support : Manuel Goepfert
Assistance : Marc-Olivier Méhu




SOURCES & CREDITS :

   NOAA